Time;durP1;ratioP1;P1;durP2;ratioP2;P2;SDS_P1;SDS_P2;PMS_P1;PMS_P2;Temp;Humidity;BMP_temperature;BMP_pressure;BME280_temperature;BME280_humidity;BME280_pressure;Samples;Min_cycle;Max_cycle;Signal;HPM_P1;HPM_P2
2024/01/04 00:01:20;;;;;;;37.55;34.08;;;14.00;88.10;;;;;;5041076;28;20065;-63
2024/01/04 00:03:45;;;;;;;37.10;33.63;;;14.00;90.60;;;;;;5040923;28;20130;-63
2024/01/04 00:06:11;;;;;;;31.42;28.33;;;13.90;91.50;;;;;;5037865;28;20088;-61
2024/01/04 00:08:37;;;;;;;29.50;26.83;;;13.90;87.00;;;;;;5025472;28;20091;-63
2024/01/04 00:11:04;;;;;;;26.20;23.70;;;13.90;79.50;;;;;;5043192;28;20108;-63
2024/01/04 00:13:30;;;;;;;24.10;22.20;;;13.90;73.40;;;;;;5031491;28;20168;-63
2024/01/04 00:15:55;;;;;;;26.08;23.88;;;13.90;64.10;;;;;;5044166;28;20048;-64
2024/01/04 00:18:21;;;;;;;25.40;23.17;;;14.00;63.40;;;;;;5042585;28;20525;-62
2024/01/04 00:20:47;;;;;;;29.23;26.38;;;14.00;60.60;;;;;;5036626;28;20041;-63
2024/01/04 00:23:12;;;;;;;32.53;29.67;;;14.50;60.00;;;;;;5026039;28;20044;-63
2024/01/04 00:25:38;;;;;;;31.05;28.35;;;14.00;58.70;;;;;;5035443;28;20483;-62
2024/01/04 00:28:04;;;;;;;33.95;30.98;;;14.00;55.10;;;;;;5035582;28;20040;-63
2024/01/04 00:30:29;;;;;;;27.48;25.27;;;13.90;55.50;;;;;;5038867;28;20052;-62
2024/01/04 00:32:55;;;;;;;30.25;27.42;;;14.00;53.90;;;;;;5042562;28;20045;-63
2024/01/04 00:35:21;;;;;;;29.20;26.50;;;13.90;54.30;;;;;;5043628;28;20037;-63
2024/01/04 00:37:46;;;;;;;31.88;28.83;;;13.90;45.60;;;;;;5039942;28;20174;-63
2024/01/04 00:40:12;;;;;;;28.67;25.77;;;14.00;49.90;;;;;;5040851;28;20045;-63
2024/01/04 00:42:38;;;;;;;28.77;26.20;;;14.00;48.50;;;;;;5040670;28;20132;-63
2024/01/04 00:45:04;;;;;;;26.52;23.77;;;14.20;44.80;;;;;;5040460;28;20044;-62
2024/01/04 00:47:30;;;;;;;33.22;29.85;;;13.70;40.60;;;;;;5039397;28;20055;-62
2024/01/04 00:49:55;;;;;;;25.23;23.33;;;13.70;38.20;;;;;;5039593;28;20511;-62
2024/01/04 00:52:21;;;;;;;26.92;24.42;;;13.80;35.90;;;;;;5039895;28;20502;-63
2024/01/04 00:54:46;;;;;;;26.00;23.55;;;13.80;33.70;;;;;;5042576;28;20086;-61
2024/01/04 00:57:12;;;;;;;24.98;22.80;;;13.80;32.30;;;;;;5034433;28;20052;-62
2024/01/04 00:59:37;;;;;;;29.13;26.33;;;13.70;32.10;;;;;;5041847;28;20037;-62
2024/01/04 01:02:03;;;;;;;31.98;29.17;;;13.80;32.50;;;;;;5031644;28;20151;-63
2024/01/04 01:04:29;;;;;;;30.77;27.95;;;13.90;33.30;;;;;;5040156;28;20319;-63
2024/01/04 01:06:54;;;;;;;24.83;22.80;;;13.70;31.80;;;;;;5033864;28;20525;-63
2024/01/04 01:09:20;;;;;;;29.52;26.95;;;13.70;28.70;;;;;;5023702;28;20041;-63
2024/01/04 01:11:45;;;;;;;30.33;27.33;;;13.70;27.70;;;;;;5036361;28;20080;-61
2024/01/04 01:14:11;;;;;;;31.70;28.40;;;13.70;27.10;;;;;;5033549;28;20041;-62
2024/01/04 01:16:37;;;;;;;26.95;24.75;;;13.90;28.50;;;;;;5037126;28;20039;-62
2024/01/04 01:19:03;;;;;;;26.90;24.60;;;13.70;29.60;;;;;;5044122;28;20102;-63
2024/01/04 01:21:28;;;;;;;32.67;29.85;;;13.70;28.00;;;;;;5028905;28;20462;-62
2024/01/04 01:23:54;;;;;;;37.00;33.45;;;13.60;29.10;;;;;;5044921;28;20045;-64
2024/01/04 01:26:20;;;;;;;32.05;29.25;;;13.70;33.80;;;;;;5041543;28;20075;-63
2024/01/04 01:28:46;;;;;;;26.88;24.63;;;13.70;32.00;;;;;;5047153;28;20044;-62
2024/01/04 01:31:11;;;;;;;31.40;28.50;;;13.70;27.70;;;;;;5039383;28;20041;-64
2024/01/04 01:33:40;;;;;;;25.40;23.20;;;13.60;26.20;;;;;;5029098;28;20468;-63
2024/01/04 01:36:06;;;;;;;31.75;28.05;;;13.60;21.70;;;;;;5042523;28;20048;-63
2024/01/04 01:38:32;;;;;;;26.05;23.77;;;13.60;23.90;;;;;;5045622;28;20132;-61
2024/01/04 01:40:58;;;;;;;28.40;25.55;;;13.70;24.00;;;;;;5044093;28;20144;-63
2024/01/04 01:43:23;;;;;;;27.85;25.25;;;13.60;23.40;;;;;;5047579;28;20044;-63
2024/01/04 01:45:49;;;;;;;33.63;30.63;;;13.60;19.30;;;;;;5046452;28;20083;-63
2024/01/04 01:48:15;;;;;;;28.55;26.30;;;13.60;19.80;;;;;;5046875;28;20059;-63
2024/01/04 01:50:40;;;;;;;29.83;27.33;;;13.60;22.10;;;;;;5044973;28;20276;-62
2024/01/04 01:53:07;;;;;;;27.48;24.90;;;13.50;19.70;;;;;;5047665;28;20044;-62
2024/01/04 01:55:33;;;;;;;26.75;24.75;;;13.60;16.40;;;;;;5048279;28;20045;-62
2024/01/04 01:57:59;;;;;;;33.10;29.33;;;13.60;16.10;;;;;;5046663;28;20052;-62
2024/01/04 02:00:25;;;;;;;27.33;24.80;;;14.10;16.70;;;;;;5043578;28;20065;-62
2024/01/04 02:02:50;;;;;;;23.13;21.23;;;13.60;14.60;;;;;;5042927;28;20059;-63
2024/01/04 02:05:16;;;;;;;29.50;26.40;;;13.50;7.30;;;;;;5039232;28;20453;-63
2024/01/04 02:07:45;;;;;;;26.55;24.05;;;13.50;5.90;;;;;;5036995;28;20125;-62
2024/01/04 02:10:11;;;;;;;23.13;21.13;;;13.50;4.40;;;;;;5033838;28;20529;-62
2024/01/04 02:12:38;;;;;;;29.35;26.85;;;13.60;1.50;;;;;;5040850;28;20029;-63
2024/01/04 02:15:04;;;;;;;27.40;24.88;;;13.50;1.80;;;;;;5032997;28;20040;-63
2024/01/04 02:17:30;;;;;;;23.65;21.95;;;13.50;1.00;;;;;;5042524;28;20422;-63
2024/01/04 02:19:59;;;;;;;22.25;20.55;;;13.80;1.00;;;;;;5046247;28;20052;-63
2024/01/04 02:22:24;;;;;;;22.88;21.17;;;13.50;1.00;;;;;;5041542;28;20037;-62
2024/01/04 02:24:50;;;;;;;29.50;26.98;;;13.50;1.00;;;;;;5047681;28;20048;-62
2024/01/04 02:27:17;;;;;;;25.27;22.73;;;13.50;1.00;;;;;;5042900;28;20037;-63
2024/01/04 02:29:43;;;;;;;32.50;29.10;;;13.40;1.00;;;;;;5033264;28;20187;-63
2024/01/04 02:32:08;;;;;;;25.77;23.58;;;13.40;1.00;;;;;;5045132;28;20188;-63
2024/01/04 02:34:34;;;;;;;32.17;28.80;;;14.20;1.00;;;;;;5047013;28;20082;-63
2024/01/04 02:36:59;;;;;;;35.28;31.60;;;13.30;1.00;;;;;;5044226;28;20052;-64
2024/01/04 02:39:25;;;;;;;27.88;25.05;;;13.30;1.00;;;;;;5039488;28;20593;-62
2024/01/04 02:41:50;;;;;;;30.40;27.83;;;13.30;1.00;;;;;;5044935;28;20056;-62
2024/01/04 02:44:16;;;;;;;28.52;26.30;;;13.30;1.00;;;;;;5029221;28;20415;-63
2024/01/04 02:46:42;;;;;;;28.55;26.15;;;13.20;1.00;;;;;;5031689;28;20518;-63
2024/01/04 02:49:08;;;;;;;31.33;28.60;;;13.20;1.00;;;;;;5034913;28;20053;-63
2024/01/04 02:51:33;;;;;;;31.15;28.55;;;13.60;1.00;;;;;;5035701;28;20049;-63
2024/01/04 02:53:59;;;;;;;35.45;32.03;;;13.80;1.00;;;;;;5036539;28;20175;-63
2024/01/04 02:56:25;;;;;;;28.25;25.63;;;13.10;1.00;;;;;;5039638;28;20041;-63
2024/01/04 02:58:51;;;;;;;35.78;32.17;;;13.20;1.00;;;;;;5043656;28;20060;-63
2024/01/04 03:01:23;;;;;;;27.85;25.35;;;13.10;1.90;;;;;;5042961;28;20045;-63
2024/01/04 03:03:51;;;;;;;29.15;26.20;;;13.20;1.00;;;;;;5041566;28;20049;-63
2024/01/04 03:06:24;;;;;;;35.60;32.08;;;13.30;1.00;;;;;;5043035;28;20033;-63
2024/01/04 03:08:50;;;;;;;27.20;24.58;;;13.30;2.10;;;;;;5044187;28;20130;-63
2024/01/04 03:11:16;;;;;;;29.17;26.15;;;13.20;1.00;;;;;;5044933;28;20563;-63
2024/01/04 03:13:41;;;;;;;22.63;20.90;;;13.20;1.00;;;;;;5043570;28;20172;-63
2024/01/04 03:16:07;;;;;;;20.85;19.08;;;13.20;1.00;;;;;;5043004;28;20045;-62
2024/01/04 03:18:34;;;;;;;19.23;17.50;;;13.30;1.00;;;;;;5042971;28;20036;-62
2024/01/04 03:21:01;;;;;;;19.55;18.15;;;13.30;1.00;;;;;;5040456;28;20041;-63
2024/01/04 03:23:26;;;;;;;23.20;21.15;;;13.40;1.00;;;;;;5042351;28;20060;-63
2024/01/04 03:25:53;;;;;;;21.88;20.15;;;13.20;1.00;;;;;;5040904;28;20029;-62
2024/01/04 03:28:19;;;;;;;22.50;20.67;;;13.80;1.00;;;;;;5043148;28;20052;-63
2024/01/04 03:30:45;;;;;;;27.55;24.85;;;13.20;1.00;;;;;;5041775;28;20033;-62
2024/01/04 03:33:10;;;;;;;28.65;26.05;;;13.20;1.00;;;;;;5040204;28;20541;-62
2024/01/04 03:35:36;;;;;;;28.30;25.80;;;13.20;1.00;;;;;;5032487;28;20049;-64
2024/01/04 03:38:02;;;;;;;24.45;22.25;;;13.10;1.00;;;;;;5041017;28;20053;-62
2024/01/04 03:40:27;;;;;;;25.05;22.90;;;13.10;1.00;;;;;;5045552;28;20052;-62
2024/01/04 03:42:53;;;;;;;30.73;27.80;;;13.20;1.00;;;;;;5045480;28;20037;-62
2024/01/04 03:45:18;;;;;;;30.45;27.75;;;13.10;1.00;;;;;;5029881;28;20087;-64
2024/01/04 03:47:44;;;;;;;28.50;25.70;;;13.10;1.00;;;;;;5040370;28;20040;-62
2024/01/04 03:50:11;;;;;;;37.10;33.67;;;13.10;1.00;;;;;;5040387;28;20045;-62
2024/01/04 03:52:36;;;;;;;35.00;31.58;;;13.00;1.00;;;;;;5042655;28;20415;-62
2024/01/04 03:55:03;;;;;;;31.45;28.13;;;13.50;1.00;;;;;;5045035;28;20028;-62
2024/01/04 03:57:29;;;;;;;37.17;33.58;;;13.10;1.00;;;;;;5041001;28;20494;-63
2024/01/04 03:59:54;;;;;;;28.70;26.00;;;13.00;1.00;;;;;;5038087;28;20043;-63
2024/01/04 04:02:20;;;;;;;31.65;28.85;;;13.00;1.00;;;;;;5035493;28;20054;-63
2024/01/04 04:04:46;;;;;;;31.05;28.58;;;13.00;1.00;;;;;;5038033;28;20053;-63
2024/01/04 04:07:11;;;;;;;34.13;30.95;;;13.00;1.00;;;;;;5037368;28;20037;-63
2024/01/04 04:09:37;;;;;;;29.35;26.40;;;13.10;1.00;;;;;;5034997;28;20038;-63
2024/01/04 04:12:03;;;;;;;32.95;29.73;;;12.90;1.00;;;;;;5033636;28;20033;-63
2024/01/04 04:14:29;;;;;;;30.70;27.52;;;13.00;1.00;;;;;;5030733;28;20160;-63
2024/01/04 04:16:55;;;;;;;27.77;25.35;;;13.10;1.00;;;;;;5027802;28;20411;-63
2024/01/04 04:19:20;;;;;;;28.60;26.00;;;13.00;1.00;;;;;;5042579;28;20041;-62
2024/01/04 04:21:46;;;;;;;29.73;26.98;;;13.00;1.00;;;;;;5045859;28;20041;-62
2024/01/04 04:24:11;;;;;;;35.38;31.90;;;13.00;1.00;;;;;;5029128;28;20107;-63
2024/01/04 04:26:37;;;;;;;32.63;29.52;;;13.00;1.00;;;;;;5038843;28;20149;-62
2024/01/04 04:29:03;;;;;;;27.02;24.50;;;13.10;1.00;;;;;;5045088;28;20044;-62
2024/01/04 04:31:28;;;;;;;32.95;30.05;;;13.10;1.00;;;;;;5043298;28;20072;-63
2024/01/04 04:33:54;;;;;;;32.28;29.42;;;13.10;1.00;;;;;;5043976;28;20044;-62
2024/01/04 04:36:19;;;;;;;32.33;29.13;;;13.00;1.00;;;;;;5042821;28;20114;-63
2024/01/04 04:38:45;;;;;;;28.45;25.85;;;13.00;1.00;;;;;;5043042;28;20369;-64
2024/01/04 04:41:10;;;;;;;29.75;26.95;;;13.00;1.00;;;;;;5045629;28;20041;-62
2024/01/04 04:43:36;;;;;;;34.35;31.25;;;12.90;1.00;;;;;;5043643;28;20107;-63
2024/01/04 04:46:08;;;;;;;32.38;29.30;;;12.90;1.00;;;;;;5034126;28;20056;-63
2024/01/04 04:48:34;;;;;;;34.35;31.05;;;12.90;1.00;;;;;;5042026;28;20098;-63
2024/01/04 04:50:59;;;;;;;27.70;25.23;;;12.90;1.00;;;;;;5041985;28;20095;-63
2024/01/04 04:53:25;;;;;;;28.90;26.60;;;12.80;1.00;;;;;;5012284;28;20118;-62
2024/01/04 04:55:50;;;;;;;30.30;27.90;;;12.90;1.00;;;;;;5045181;28;20045;-63
2024/01/04 04:58:16;;;;;;;30.88;28.17;;;12.90;1.00;;;;;;5032414;28;20033;-63
2024/01/04 05:00:42;;;;;;;32.10;29.50;;;13.00;1.00;;;;;;5033036;28;20134;-63
2024/01/04 05:03:07;;;;;;;38.88;35.50;;;12.90;1.00;;;;;;5049302;28;20052;-62
2024/01/04 05:05:33;;;;;;;37.95;34.28;;;12.90;1.00;;;;;;5049572;28;20112;-62
2024/01/04 05:07:59;;;;;;;33.90;30.48;;;13.00;1.00;;;;;;5043403;28;20040;-64
2024/01/04 05:10:24;;;;;;;31.48;28.48;;;13.00;1.00;;;;;;5042438;28;20046;-62
2024/01/04 05:12:51;;;;;;;35.45;31.95;;;12.90;1.00;;;;;;5044841;28;20537;-62
2024/01/04 05:15:17;;;;;;;36.53;33.15;;;12.90;1.00;;;;;;5043990;28;20048;-63
2024/01/04 05:17:43;;;;;;;29.98;27.60;;;12.90;1.00;;;;;;5042180;28;20044;-63
2024/01/04 05:20:09;;;;;;;37.33;33.72;;;12.80;1.00;;;;;;5045446;28;20133;-62
2024/01/04 05:22:34;;;;;;;34.05;31.02;;;12.90;1.00;;;;;;5041908;28;20491;-63
2024/01/04 05:25:00;;;;;;;34.13;30.95;;;12.90;1.00;;;;;;5045293;28;20681;-63
2024/01/04 05:27:29;;;;;;;39.40;35.20;;;12.90;1.00;;;;;;5045606;28;20037;-63
2024/01/04 05:29:54;;;;;;;31.00;28.20;;;12.80;1.00;;;;;;5042509;28;20041;-63
2024/01/04 05:32:20;;;;;;;37.28;33.72;;;12.80;1.00;;;;;;5044265;28;20640;-63
2024/01/04 05:34:48;;;;;;;35.53;31.92;;;13.70;1.00;;;;;;5042966;28;20115;-62
2024/01/04 05:37:14;;;;;;;36.85;33.30;;;12.90;1.00;;;;;;5040603;28;20052;-63
2024/01/04 05:39:41;;;;;;;40.53;36.53;;;12.70;1.00;;;;;;5044320;28;20033;-63
2024/01/04 05:42:07;;;;;;;37.10;33.50;;;12.80;1.00;;;;;;5040342;28;20041;-63
2024/01/04 05:44:33;;;;;;;35.97;32.72;;;13.10;1.00;;;;;;5030638;28;20048;-64
2024/01/04 05:46:58;;;;;;;39.00;35.42;;;12.70;1.00;;;;;;5032881;28;20042;-63
2024/01/04 05:49:24;;;;;;;37.15;33.65;;;13.30;1.00;;;;;;5035570;28;20068;-62
2024/01/04 05:51:49;;;;;;;39.10;35.30;;;12.70;1.00;;;;;;5045163;28;20721;-62
2024/01/04 05:54:15;;;;;;;35.70;32.10;;;12.80;1.00;;;;;;5031244;28;20394;-63
2024/01/04 05:56:42;;;;;;;32.65;29.45;;;12.70;1.00;;;;;;5039002;28;20051;-62
2024/01/04 05:59:08;;;;;;;36.22;33.03;;;12.80;1.00;;;;;;5028369;28;20049;-63
2024/01/04 06:01:36;;;;;;;34.15;31.25;;;12.70;1.00;;;;;;5042897;28;20060;-62
2024/01/04 06:04:02;;;;;;;35.25;31.98;;;13.00;1.00;;;;;;5039310;28;20135;-63
2024/01/04 06:06:27;;;;;;;35.05;31.83;;;12.70;1.00;;;;;;5029871;28;20164;-63
2024/01/04 06:08:53;;;;;;;33.28;29.80;;;12.70;1.00;;;;;;5032669;28;20040;-63
2024/01/04 06:11:19;;;;;;;32.97;29.77;;;12.70;1.00;;;;;;5037561;28;20041;-63
2024/01/04 06:13:44;;;;;;;32.75;29.65;;;12.60;1.00;;;;;;5032217;28;20041;-63
2024/01/04 06:16:10;;;;;;;34.47;30.52;;;12.60;1.00;;;;;;5035970;28;20095;-64
2024/01/04 06:18:36;;;;;;;34.72;31.73;;;12.70;1.00;;;;;;5038878;28;20090;-62
2024/01/04 06:21:02;;;;;;;36.42;32.58;;;12.70;1.00;;;;;;5033448;28;20479;-63
2024/01/04 06:23:28;;;;;;;33.33;30.00;;;12.70;1.00;;;;;;5047122;28;20114;-64
2024/01/04 06:25:55;;;;;;;35.78;32.55;;;12.60;1.00;;;;;;5046370;28;20041;-63
2024/01/04 06:28:22;;;;;;;34.25;30.95;;;12.70;1.00;;;;;;5034953;28;20487;-62
2024/01/04 06:30:47;;;;;;;35.58;32.08;;;12.60;1.00;;;;;;5041552;28;20037;-62
2024/01/04 06:33:13;;;;;;;35.38;31.77;;;12.60;1.00;;;;;;5041495;28;20537;-63
2024/01/04 06:35:39;;;;;;;34.50;31.10;;;12.70;1.00;;;;;;5046555;28;20037;-62
2024/01/04 06:38:08;;;;;;;35.72;32.42;;;12.60;1.00;;;;;;5044231;28;20095;-63
2024/01/04 06:40:38;;;;;;;35.00;31.83;;;12.70;1.00;;;;;;5045605;28;20048;-62
2024/01/04 06:43:08;;;;;;;34.42;31.00;;;12.70;1.00;;;;;;5036089;28;20037;-62
2024/01/04 06:45:35;;;;;;;37.97;34.60;;;12.70;1.00;;;;;;5038109;28;20052;-63
2024/01/04 06:48:01;;;;;;;36.05;32.15;;;12.70;1.00;;;;;;5038999;28;20040;-62
2024/01/04 06:50:26;;;;;;;38.00;34.10;;;12.60;1.00;;;;;;5043403;28;20483;-63
2024/01/04 06:52:52;;;;;;;39.67;35.50;;;12.60;1.00;;;;;;5045339;28;20048;-63
2024/01/04 06:55:18;;;;;;;36.20;32.47;;;12.70;1.00;;;;;;5046739;28;20502;-63
2024/01/04 06:57:44;;;;;;;38.80;34.80;;;12.70;1.00;;;;;;5042505;28;20052;-62
2024/01/04 07:00:10;;;;;;;39.92;35.85;;;12.60;1.00;;;;;;5043043;28;20590;-63
2024/01/04 07:02:36;;;;;;;38.45;34.45;;;12.60;1.00;;;;;;5045670;28;20155;-62
2024/01/04 07:05:11;;;;;;;38.80;35.20;;;12.60;1.00;;;;;;5042737;28;20040;-63
2024/01/04 07:07:38;;;;;;;36.47;32.70;;;12.50;1.00;;;;;;5043598;28;20064;-63
2024/01/04 07:10:05;;;;;;;38.60;34.42;;;12.60;1.00;;;;;;5037698;28;20051;-66
2024/01/04 07:12:32;;;;;;;37.13;33.40;;;12.60;1.00;;;;;;5033052;28;20124;-63
2024/01/04 07:14:58;;;;;;;37.72;34.03;;;12.60;1.00;;;;;;5036405;28;20053;-63
2024/01/04 07:17:23;;;;;;;42.53;38.53;;;12.60;1.00;;;;;;5038507;28;20045;-66
2024/01/04 07:19:50;;;;;;;36.97;33.83;;;12.60;1.00;;;;;;5035834;28;20521;-62
2024/01/04 07:22:16;;;;;;;38.72;34.63;;;12.70;1.00;;;;;;5035747;28;20036;-64
2024/01/04 07:24:42;;;;;;;40.10;36.50;;;13.20;1.00;;;;;;5041769;28;20036;-63
2024/01/04 07:27:08;;;;;;;41.03;37.00;;;12.70;1.00;;;;;;5037290;28;20087;-63
2024/01/04 07:29:34;;;;;;;36.42;32.63;;;12.80;1.00;;;;;;5035800;28;20042;-64
2024/01/04 07:32:00;;;;;;;38.15;34.17;;;12.80;1.00;;;;;;5036116;28;20040;-63
2024/01/04 07:34:26;;;;;;;35.88;32.25;;;12.70;1.00;;;;;;5041263;28;20127;-64
2024/01/04 07:36:52;;;;;;;36.13;32.63;;;12.70;1.00;;;;;;5036774;28;20048;-64
2024/01/04 07:39:18;;;;;;;36.13;32.40;;;13.30;5.90;;;;;;5036043;28;20041;-63
2024/01/04 07:41:43;;;;;;;36.78;32.88;;;12.60;1.00;;;;;;5038551;28;20111;-62
2024/01/04 07:44:10;;;;;;;35.92;32.45;;;12.70;1.00;;;;;;5037050;28;20055;-63
2024/01/04 07:46:36;;;;;;;33.88;30.67;;;12.60;1.00;;;;;;5035271;28;20064;-63
2024/01/04 07:49:06;;;;;;;32.65;29.25;;;12.70;1.00;;;;;;5036783;28;20033;-63
2024/01/04 07:51:32;;;;;;;38.78;33.05;;;12.50;1.00;;;;;;5032059;28;20091;-63
2024/01/04 07:53:58;;;;;;;36.25;30.90;;;13.50;1.00;;;;;;5038131;28;20522;-63
2024/01/04 07:56:24;;;;;;;35.53;31.42;;;12.60;1.00;;;;;;5035698;28;20045;-63
2024/01/04 07:58:49;;;;;;;38.38;34.38;;;12.70;1.00;;;;;;5040125;28;20590;-62
2024/01/04 08:01:15;;;;;;;36.05;32.47;;;12.60;1.00;;;;;;5036970;28;20123;-62
2024/01/04 08:03:40;;;;;;;38.20;34.40;;;12.50;7.10;;;;;;5040117;28;20167;-62
2024/01/04 08:06:06;;;;;;;40.80;36.65;;;12.60;1.00;;;;;;5035820;28;20045;-62
2024/01/04 08:08:32;;;;;;;37.88;33.08;;;12.60;1.60;;;;;;5035309;28;20474;-63
2024/01/04 08:11:00;;;;;;;43.97;39.17;;;12.50;2.00;;;;;;5038115;28;20044;-62
2024/01/04 08:13:25;;;;;;;41.10;36.08;;;12.40;4.60;;;;;;5038856;28;20088;-62
2024/01/04 08:15:51;;;;;;;40.50;36.20;;;12.60;4.90;;;;;;5036960;28;20068;-63
2024/01/04 08:18:20;;;;;;;40.63;36.13;;;12.50;6.50;;;;;;5039715;28;20118;-63
2024/01/04 08:20:45;;;;;;;38.15;34.15;;;12.50;7.10;;;;;;5034796;28;20045;-62
2024/01/04 08:23:12;;;;;;;36.03;32.60;;;12.40;7.60;;;;;;5038501;28;20042;-62
2024/01/04 08:25:38;;;;;;;37.90;34.08;;;12.50;6.70;;;;;;5042615;28;20029;-63
2024/01/04 08:28:03;;;;;;;37.33;33.10;;;12.40;7.60;;;;;;5041967;28;20784;-62
2024/01/04 08:30:29;;;;;;;36.97;33.17;;;12.50;6.70;;;;;;5046354;28;20041;-61
2024/01/04 08:32:55;;;;;;;35.08;31.35;;;12.60;8.30;;;;;;5043358;28;20043;-62
2024/01/04 08:35:21;;;;;;;37.65;32.35;;;14.50;8.60;;;;;;5043004;28;20029;-61
2024/01/04 08:37:46;;;;;;;37.83;34.05;;;12.50;8.00;;;;;;5037493;28;20049;-61
2024/01/04 08:40:13;;;;;;;36.05;32.17;;;12.60;7.70;;;;;;5040602;28;20140;-64
2024/01/04 08:42:39;;;;;;;41.40;36.92;;;12.60;8.10;;;;;;5040795;28;20060;-64
2024/01/04 08:45:06;;;;;;;39.75;35.53;;;12.70;11.00;;;;;;5038816;28;20045;-62
2024/01/04 08:47:31;;;;;;;42.35;36.47;;;12.50;11.40;;;;;;5041894;28;20037;-61
2024/01/04 08:50:00;;;;;;;44.83;35.95;;;12.80;13.70;;;;;;5026410;28;20048;-63
2024/01/04 08:52:26;;;;;;;40.00;35.78;;;13.00;14.20;;;;;;5036401;28;20167;-63
2024/01/04 08:54:52;;;;;;;45.90;38.75;;;12.60;14.70;;;;;;5041106;28;20065;-64
2024/01/04 08:57:17;;;;;;;41.65;37.25;;;12.50;17.00;;;;;;5039721;28;20088;-62
2024/01/04 08:59:43;;;;;;;41.55;34.63;;;12.70;18.10;;;;;;5043290;28;20083;-61
2024/01/04 09:02:09;;;;;;;40.22;33.92;;;12.50;17.70;;;;;;5039383;28;20360;-62
2024/01/04 09:04:34;;;;;;;42.22;38.00;;;12.70;18.80;;;;;;5039914;28;20053;-61
2024/01/04 09:07:00;;;;;;;41.40;37.03;;;12.70;20.80;;;;;;5041015;28;20041;-62
2024/01/04 09:09:26;;;;;;;42.05;37.65;;;13.20;20.20;;;;;;5040401;28;20616;-61
2024/01/04 09:11:51;;;;;;;40.67;35.90;;;12.70;21.00;;;;;;5037692;28;20041;-63
2024/01/04 09:14:17;;;;;;;42.08;37.38;;;12.60;21.70;;;;;;5038076;28;20052;-62
2024/01/04 09:16:44;;;;;;;42.13;37.63;;;12.60;21.70;;;;;;5038479;28;20629;-62
2024/01/04 09:19:16;;;;;;;41.33;36.95;;;12.60;23.30;;;;;;5037332;28;20160;-61
2024/01/04 09:21:49;;;;;;;39.80;35.50;;;12.70;24.60;;;;;;5037887;28;20045;-64
2024/01/04 09:24:15;;;;;;;37.78;34.05;;;12.70;24.30;;;;;;5041007;28;20036;-62
2024/01/04 09:26:44;;;;;;;40.08;35.90;;;12.70;24.00;;;;;;5038524;28;20530;-63
2024/01/04 09:29:11;;;;;;;41.15;37.05;;;12.80;25.10;;;;;;5059023;28;20045;-61
2024/01/04 09:31:37;;;;;;;40.83;36.55;;;12.70;24.80;;;;;;5034275;28;20040;-62
2024/01/04 09:34:03;;;;;;;37.58;33.72;;;12.70;25.00;;;;;;5042952;28;20090;-62
2024/01/04 09:36:28;;;;;;;35.03;31.23;;;12.70;22.50;;;;;;5041734;28;20129;-61
2024/01/04 09:38:55;;;;;;;33.42;30.00;;;12.70;18.40;;;;;;5042530;28;20037;-62
2024/01/04 09:41:31;;;;;;;31.98;28.55;;;12.60;14.90;;;;;;5037618;28;20111;-62
2024/01/04 09:44:00;;;;;;;;;;;12.70;10.80;;;;;;5043537;28;20080;-62
2024/01/04 09:46:37;;;;;;;30.85;27.60;;;12.60;8.80;;;;;;5041997;28;19925;-63
2024/01/04 09:49:04;;;;;;;34.97;28.75;;;12.60;7.00;;;;;;5037571;28;20080;-63
2024/01/04 09:51:37;;;;;;;34.03;30.83;;;12.70;6.20;;;;;;5038004;28;20052;-61
2024/01/04 09:54:03;;;;;;;33.05;29.63;;;12.70;7.60;;;;;;5040289;28;20033;-61
2024/01/04 09:56:30;;;;;;;29.75;26.80;;;12.60;7.10;;;;;;5036593;28;20180;-62
2024/01/04 09:58:55;;;;;;;32.55;29.25;;;12.70;6.60;;;;;;5036354;28;20045;-63
2024/01/04 10:01:30;;;;;;;32.83;29.73;;;12.80;10.00;;;;;;5041078;28;20533;-62
2024/01/04 10:03:59;;;;;;;31.70;28.90;;;12.70;10.10;;;;;;5038397;28;20048;-62
2024/01/04 10:06:32;;;;;;;29.70;26.70;;;12.80;9.80;;;;;;5038755;28;20503;-63
2024/01/04 10:09:08;;;;;;;28.75;25.70;;;12.80;7.30;;;;;;5041456;28;20033;-61
2024/01/04 10:11:42;;;;;;;31.08;27.98;;;12.70;2.60;;;;;;5036847;28;20068;-61
2024/01/04 10:14:08;;;;;;;28.75;25.77;;;12.70;2.50;;;;;;5038876;28;20072;-62
2024/01/04 10:16:35;;;;;;;30.55;27.55;;;12.80;1.00;;;;;;5041304;28;20052;-63
2024/01/04 10:19:02;;;;;;;30.23;27.02;;;12.70;1.00;;;;;;5024089;28;20041;-63
2024/01/04 10:21:33;;;;;;;29.58;26.58;;;12.70;1.00;;;;;;5034335;28;20136;-62
2024/01/04 10:23:59;;;;;;;29.95;26.67;;;12.70;1.00;;;;;;5035976;28;20052;-62
2024/01/04 10:26:27;;;;;;;29.80;26.95;;;12.80;1.00;;;;;;5035193;28;20458;-62
2024/01/04 10:28:56;;;;;;;32.47;27.05;;;12.70;1.00;;;;;;5036430;28;20048;-63
2024/01/04 10:31:22;;;;;;;30.40;27.35;;;12.90;1.00;;;;;;5033729;28;20040;-62
2024/01/04 10:33:58;;;;;;;30.30;27.42;;;12.80;1.00;;;;;;5016523;28;20112;-62
2024/01/04 10:36:28;;;;;;;28.55;25.55;;;12.80;1.00;;;;;;5036839;28;20037;-62
2024/01/04 10:39:03;;;;;;;28.55;24.73;;;12.80;1.00;;;;;;5039690;28;20073;-63
2024/01/04 10:41:29;;;;;;;32.00;28.80;;;12.80;1.00;;;;;;5033694;28;20487;-62
2024/01/04 10:44:07;;;;;;;30.70;27.70;;;12.80;1.00;;;;;;5038726;28;20127;-62
2024/01/04 10:46:36;;;;;;;32.60;27.98;;;12.80;1.00;;;;;;5037470;28;20045;-62
2024/01/04 10:49:03;;;;;;;29.42;26.58;;;12.90;1.00;;;;;;5033610;28;20768;-62
2024/01/04 10:51:32;;;;;;;30.70;27.25;;;12.90;1.00;;;;;;5037223;28;20099;-62
2024/01/04 10:54:02;;;;;;;31.83;28.63;;;12.90;1.00;;;;;;5034115;28;20045;-63
2024/01/04 10:56:29;;;;;;;27.90;25.15;;;13.40;1.00;;;;;;5036322;28;22005;-61
2024/01/04 10:58:56;;;;;;;31.20;28.13;;;13.00;1.00;;;;;;5037446;28;20045;-61
2024/01/04 11:01:22;;;;;;;27.70;24.30;;;12.90;1.00;;;;;;5035519;28;20057;-62
2024/01/04 11:03:49;;;;;;;23.35;20.98;;;13.00;1.00;;;;;;5037647;28;20656;-61
2024/01/04 11:06:15;;;;;;;23.33;20.90;;;13.00;1.00;;;;;;5034060;28;20048;-62
2024/01/04 11:08:41;;;;;;;27.88;25.02;;;12.90;1.00;;;;;;5039081;28;20029;-62
2024/01/04 11:11:09;;;;;;;27.60;24.83;;;13.00;1.00;;;;;;5033926;28;20098;-62
2024/01/04 11:13:35;;;;;;;27.98;24.20;;;12.90;1.00;;;;;;5034212;28;20049;-64
2024/01/04 11:16:10;;;;;;;28.75;25.75;;;12.90;1.00;;;;;;5037224;28;20640;-62
2024/01/04 11:19:04;;;;;;;29.33;25.03;;;13.00;1.00;;;;;;5029312;28;20903;-62
2024/01/04 11:21:42;;;;;;;33.90;27.20;;;13.00;1.00;;;;;;5035184;28;20766;-62
2024/01/04 11:24:22;;;;;;;29.77;26.92;;;13.00;1.00;;;;;;5034488;28;20064;-61
2024/01/04 11:26:56;;;;;;;31.85;28.95;;;13.00;1.00;;;;;;5032114;28;20042;-62
2024/01/04 11:29:23;;;;;;;27.02;24.33;;;13.00;1.00;;;;;;5034201;28;20045;-61
2024/01/04 11:31:49;;;;;;;30.45;27.35;;;12.90;1.00;;;;;;5035217;28;20086;-62
2024/01/04 11:34:15;;;;;;;30.45;27.38;;;13.00;1.00;;;;;;5033652;28;20072;-62
2024/01/04 11:36:41;;;;;;;30.10;27.27;;;12.90;1.00;;;;;;5035675;28;20041;-62
2024/01/04 11:39:07;;;;;;;29.13;26.05;;;13.00;1.00;;;;;;5032103;28;20041;-62
2024/01/04 11:41:36;;;;;;;27.27;24.60;;;13.10;1.00;;;;;;5037417;28;20045;-62
2024/01/04 11:44:14;;;;;;;30.35;26.15;;;13.00;1.00;;;;;;5032389;28;20095;-64
2024/01/04 11:46:41;;;;;;;27.60;24.90;;;13.00;1.00;;;;;;5035076;28;20044;-62
2024/01/04 11:49:07;;;;;;;28.45;25.65;;;12.90;1.00;;;;;;5034811;28;20048;-62
2024/01/04 11:51:38;;;;;;;30.35;26.75;;;13.00;1.00;;;;;;5037628;28;20483;-63
2024/01/04 11:54:05;;;;;;;31.38;28.27;;;13.00;1.00;;;;;;5036421;28;20399;-62
2024/01/04 11:56:31;;;;;;;30.58;26.85;;;13.00;1.00;;;;;;5018896;28;20482;-62
2024/01/04 11:59:10;;;;;;;30.90;27.77;;;13.10;1.00;;;;;;5032027;28;20037;-63
2024/01/04 12:01:41;;;;;;;26.98;24.25;;;13.10;1.00;;;;;;5032908;28;20134;-62
2024/01/04 12:04:14;;;;;;;28.90;25.80;;;13.10;1.00;;;;;;5031585;28;21050;-63
2024/01/04 12:06:41;;;;;;;27.25;24.55;;;13.10;1.00;;;;;;5032924;28;20049;-64
2024/01/04 12:09:17;;;;;;;29.73;25.77;;;13.10;1.00;;;;;;5038103;28;20041;-63
2024/01/04 12:11:51;;;;;;;;;;;13.10;1.00;;;;;;5036275;28;20050;-62
2024/01/04 12:14:16;;;;;;;31.02;27.92;;;13.10;1.00;;;;;;5036015;28;19925;-64
2024/01/04 12:16:42;;;;;;;27.85;25.13;;;13.00;1.00;;;;;;5038818;28;20079;-62
2024/01/04 12:19:08;;;;;;;28.17;25.17;;;13.80;1.00;;;;;;5039046;28;20184;-63
2024/01/04 12:21:34;;;;;;;28.92;26.00;;;13.00;1.00;;;;;;5039854;28;20110;-63
2024/01/04 12:24:02;;;;;;;26.48;23.77;;;13.30;1.00;;;;;;5034726;28;20091;-62
2024/01/04 12:26:28;;;;;;;28.85;25.60;;;12.90;1.00;;;;;;5033411;28;20037;-62
2024/01/04 12:28:55;;;;;;;28.58;25.55;;;12.90;1.00;;;;;;5034305;28;20033;-62
2024/01/04 12:31:25;;;;;;;30.35;26.58;;;13.00;1.00;;;;;;5035864;28;20459;-64
2024/01/04 12:33:53;;;;;;;30.27;27.23;;;13.00;1.00;;;;;;5034675;28;20516;-63